sensor_id;sensor_type;location;lat;lon;timestamp;pressure;altitude;pressure_sealevel;temperature;humidity
70133;BME280;57495;49.922;7.966;2024-01-07T00:00:10;99497.19;;;3.77;100.00
70133;BME280;57495;49.922;7.966;2024-01-07T00:02:13;99499.94;;;3.75;100.00
70133;BME280;57495;49.922;7.966;2024-01-07T00:04:15;99503.69;;;3.73;100.00
70133;BME280;57495;49.922;7.966;2024-01-07T00:06:16;99501.75;;;3.75;100.00
70133;BME280;57495;49.922;7.966;2024-01-07T00:08:18;99502.31;;;3.67;100.00
70133;BME280;57495;49.922;7.966;2024-01-07T00:10:18;99502.16;;;3.57;100.00
70133;BME280;57495;49.922;7.966;2024-01-07T00:12:20;99502.44;;;3.65;100.00
70133;BME280;57495;49.922;7.966;2024-01-07T00:14:21;99503.00;;;3.58;100.00
70133;BME280;57495;49.922;7.966;2024-01-07T00:16:23;99500.91;;;3.50;100.00
70133;BME280;57495;49.922;7.966;2024-01-07T00:18:25;99516.78;;;3.50;100.00
70133;BME280;57495;49.922;7.966;2024-01-07T00:20:27;99512.94;;;3.54;100.00
70133;BME280;57495;49.922;7.966;2024-01-07T00:22:28;99510.75;;;3.48;100.00
70133;BME280;57495;49.922;7.966;2024-01-07T00:24:30;99509.59;;;3.39;100.00
70133;BME280;57495;49.922;7.966;2024-01-07T00:26:30;99509.59;;;3.39;100.00
70133;BME280;57495;49.922;7.966;2024-01-07T00:28:32;99512.78;;;3.44;100.00
70133;BME280;57495;49.922;7.966;2024-01-07T00:30:33;99520.59;;;3.33;100.00
70133;BME280;57495;49.922;7.966;2024-01-07T00:32:33;99518.25;;;3.41;100.00
70133;BME280;57495;49.922;7.966;2024-01-07T00:34:36;99515.00;;;3.38;100.00
70133;BME280;57495;49.922;7.966;2024-01-07T00:36:37;99522.25;;;3.47;100.00
70133;BME280;57495;49.922;7.966;2024-01-07T00:38:38;99512.22;;;3.52;100.00
70133;BME280;57495;49.922;7.966;2024-01-07T00:40:39;99510.44;;;3.40;100.00
70133;BME280;57495;49.922;7.966;2024-01-07T00:42:40;99524.19;;;3.45;100.00
70133;BME280;57495;49.922;7.966;2024-01-07T00:44:41;99521.75;;;3.42;100.00
70133;BME280;57495;49.922;7.966;2024-01-07T00:46:42;99525.13;;;3.44;100.00
70133;BME280;57495;49.922;7.966;2024-01-07T00:48:44;99525.63;;;3.49;100.00
70133;BME280;57495;49.922;7.966;2024-01-07T00:50:47;99530.13;;;3.36;100.00
70133;BME280;57495;49.922;7.966;2024-01-07T00:52:47;99535.41;;;3.36;100.00
70133;BME280;57495;49.922;7.966;2024-01-07T00:54:48;99535.19;;;3.39;100.00
70133;BME280;57495;49.922;7.966;2024-01-07T00:56:50;99538.34;;;3.44;100.00
70133;BME280;57495;49.922;7.966;2024-01-07T00:58:51;99540.59;;;3.37;100.00
70133;BME280;57495;49.922;7.966;2024-01-07T01:00:52;99539.84;;;3.35;100.00
70133;BME280;57495;49.922;7.966;2024-01-07T01:02:54;99543.63;;;3.44;100.00
70133;BME280;57495;49.922;7.966;2024-01-07T01:04:55;99548.34;;;3.52;100.00
70133;BME280;57495;49.922;7.966;2024-01-07T01:06:58;99546.16;;;3.45;100.00
70133;BME280;57495;49.922;7.966;2024-01-07T01:08:59;99548.34;;;3.52;100.00
70133;BME280;57495;49.922;7.966;2024-01-07T01:11:00;99552.06;;;3.49;100.00
70133;BME280;57495;49.922;7.966;2024-01-07T01:13:01;99553.25;;;3.45;100.00
70133;BME280;57495;49.922;7.966;2024-01-07T01:15:03;99552.59;;;3.54;100.00
70133;BME280;57495;49.922;7.966;2024-01-07T01:17:05;99565.81;;;3.54;100.00
70133;BME280;57495;49.922;7.966;2024-01-07T01:19:06;99565.19;;;3.38;100.00
70133;BME280;57495;49.922;7.966;2024-01-07T01:21:09;99566.38;;;3.34;100.00
70133;BME280;57495;49.922;7.966;2024-01-07T01:23:13;99566.78;;;3.27;100.00
70133;BME280;57495;49.922;7.966;2024-01-07T01:25:14;99561.00;;;3.22;100.00
70133;BME280;57495;49.922;7.966;2024-01-07T01:27:16;99564.38;;;3.24;100.00
70133;BME280;57495;49.922;7.966;2024-01-07T01:29:17;99571.88;;;3.31;100.00
70133;BME280;57495;49.922;7.966;2024-01-07T01:31:18;99568.19;;;3.20;100.00
70133;BME280;57495;49.922;7.966;2024-01-07T01:33:19;99564.59;;;3.21;100.00
70133;BME280;57495;49.922;7.966;2024-01-07T01:35:21;99568.84;;;3.24;100.00
70133;BME280;57495;49.922;7.966;2024-01-07T01:37:22;99571.13;;;3.28;100.00
70133;BME280;57495;49.922;7.966;2024-01-07T01:39:25;99565.84;;;3.28;100.00
70133;BME280;57495;49.922;7.966;2024-01-07T01:41:26;99575.34;;;3.31;100.00
70133;BME280;57495;49.922;7.966;2024-01-07T01:43:28;99572.84;;;3.29;100.00
70133;BME280;57495;49.922;7.966;2024-01-07T01:45:29;99575.16;;;3.21;100.00
70133;BME280;57495;49.922;7.966;2024-01-07T01:47:31;99574.94;;;3.24;100.00
70133;BME280;57495;49.922;7.966;2024-01-07T01:49:31;99579.16;;;3.27;100.00
70133;BME280;57495;49.922;7.966;2024-01-07T01:51:33;99573.34;;;3.35;100.00
70133;BME280;57495;49.922;7.966;2024-01-07T01:53:35;99577.34;;;3.27;100.00
70133;BME280;57495;49.922;7.966;2024-01-07T01:55:37;99575.34;;;3.31;100.00
70133;BME280;57495;49.922;7.966;2024-01-07T01:57:39;99572.72;;;3.31;100.00
70133;BME280;57495;49.922;7.966;2024-01-07T01:59:42;99568.84;;;3.24;100.00
70133;BME280;57495;49.922;7.966;2024-01-07T02:01:44;99570.94;;;3.32;100.00
70133;BME280;57495;49.922;7.966;2024-01-07T02:03:45;99578.53;;;3.23;100.00
70133;BME280;57495;49.922;7.966;2024-01-07T02:05:48;99577.91;;;3.20;100.00
70133;BME280;57495;49.922;7.966;2024-01-07T02:07:49;99580.97;;;3.26;100.00
70133;BME280;57495;49.922;7.966;2024-01-07T02:09:50;99581.50;;;3.32;100.00
70133;BME280;57495;49.922;7.966;2024-01-07T02:12:01;99585.28;;;3.27;100.00
70133;BME280;57495;49.922;7.966;2024-01-07T02:14:03;99582.75;;;3.39;100.00
70133;BME280;57495;49.922;7.966;2024-01-07T02:16:05;99583.59;;;3.39;100.00
70133;BME280;57495;49.922;7.966;2024-01-07T02:18:06;99582.44;;;3.31;100.00
70133;BME280;57495;49.922;7.966;2024-01-07T02:20:08;99586.34;;;3.38;100.00
70133;BME280;57495;49.922;7.966;2024-01-07T02:22:10;99585.16;;;3.42;100.00
70133;BME280;57495;49.922;7.966;2024-01-07T02:24:16;99588.53;;;3.44;100.00
70133;BME280;57495;49.922;7.966;2024-01-07T02:26:17;99586.97;;;3.41;100.00
70133;BME280;57495;49.922;7.966;2024-01-07T02:28:19;99592.16;;;3.43;100.00
70133;BME280;57495;49.922;7.966;2024-01-07T02:30:20;99589.19;;;3.47;100.00
70133;BME280;57495;49.922;7.966;2024-01-07T02:32:21;99585.25;;;3.53;100.00
70133;BME280;57495;49.922;7.966;2024-01-07T02:34:22;99592.44;;;3.51;100.00
70133;BME280;57495;49.922;7.966;2024-01-07T02:36:23;99589.41;;;3.57;100.00
70133;BME280;57495;49.922;7.966;2024-01-07T02:38:24;99585.88;;;3.57;100.00
70133;BME280;57495;49.922;7.966;2024-01-07T02:40:26;99584.84;;;3.59;100.00
70133;BME280;57495;49.922;7.966;2024-01-07T02:42:28;99581.56;;;3.56;100.00
70133;BME280;57495;49.922;7.966;2024-01-07T02:44:28;99587.78;;;3.55;100.00
70133;BME280;57495;49.922;7.966;2024-01-07T02:46:30;99590.78;;;3.50;100.00
70133;BME280;57495;49.922;7.966;2024-01-07T02:48:32;99592.69;;;3.48;100.00
70133;BME280;57495;49.922;7.966;2024-01-07T02:50:33;99590.78;;;3.50;100.00
70133;BME280;57495;49.922;7.966;2024-01-07T02:52:34;99590.97;;;3.47;100.00
70133;BME280;57495;49.922;7.966;2024-01-07T02:54:35;99591.44;;;3.41;100.00
70133;BME280;57495;49.922;7.966;2024-01-07T02:56:37;99594.38;;;3.36;100.00
70133;BME280;57495;49.922;7.966;2024-01-07T02:58:38;99596.47;;;3.44;100.00
70133;BME280;57495;49.922;7.966;2024-01-07T03:00:39;99591.44;;;3.41;100.00
70133;BME280;57495;49.922;7.966;2024-01-07T03:02:40;99588.88;;;3.39;100.00
70133;BME280;57495;49.922;7.966;2024-01-07T03:04:42;99586.13;;;3.41;100.00
70133;BME280;57495;49.922;7.966;2024-01-07T03:06:44;99594.91;;;3.41;100.00
70133;BME280;57495;49.922;7.966;2024-01-07T03:08:44;99593.53;;;3.36;100.00
70133;BME280;57495;49.922;7.966;2024-01-07T03:10:46;99597.34;;;3.44;100.00
70133;BME280;57495;49.922;7.966;2024-01-07T03:12:48;99594.06;;;3.41;100.00
70133;BME280;57495;49.922;7.966;2024-01-07T03:14:50;99596.72;;;3.41;100.00
70133;BME280;57495;49.922;7.966;2024-01-07T03:16:51;99587.91;;;3.40;100.00
70133;BME280;57495;49.922;7.966;2024-01-07T03:18:52;99590.78;;;3.37;100.00
70133;BME280;57495;49.922;7.966;2024-01-07T03:20:55;99592.06;;;3.44;100.00
70133;BME280;57495;49.922;7.966;2024-01-07T03:22:56;99593.53;;;3.48;100.00
70133;BME280;57495;49.922;7.966;2024-01-07T03:24:58;99592.44;;;3.51;100.00
70133;BME280;57495;49.922;7.966;2024-01-07T03:26:59;99599.66;;;3.36;100.00
70133;BME280;57495;49.922;7.966;2024-01-07T03:29:01;99590.38;;;3.31;100.00
70133;BME280;57495;49.922;7.966;2024-01-07T03:31:05;99595.44;;;3.34;100.00
70133;BME280;57495;49.922;7.966;2024-01-07T03:33:07;99598.38;;;3.42;100.00
70133;BME280;57495;49.922;7.966;2024-01-07T03:35:08;99597.13;;;3.35;100.00
70133;BME280;57495;49.922;7.966;2024-01-07T03:37:10;99589.28;;;3.46;100.00
70133;BME280;57495;49.922;7.966;2024-01-07T03:39:10;99604.75;;;3.26;100.00
70133;BME280;57495;49.922;7.966;2024-01-07T03:41:15;99595.44;;;3.34;100.00
70133;BME280;57495;49.922;7.966;2024-01-07T03:43:16;99597.66;;;3.27;100.00
70133;BME280;57495;49.922;7.966;2024-01-07T03:45:19;99604.75;;;3.26;100.00
70133;BME280;57495;49.922;7.966;2024-01-07T03:47:20;99595.00;;;3.40;100.00
70133;BME280;57495;49.922;7.966;2024-01-07T03:49:22;99600.19;;;3.41;100.00
70133;BME280;57495;49.922;7.966;2024-01-07T03:51:23;99600.91;;;3.43;100.00
70133;BME280;57495;49.922;7.966;2024-01-07T03:53:24;99598.94;;;3.34;100.00
70133;BME280;57495;49.922;7.966;2024-01-07T03:55:26;99598.94;;;3.34;100.00
70133;BME280;57495;49.922;7.966;2024-01-07T03:57:27;99603.56;;;3.31;100.00
70133;BME280;57495;49.922;7.966;2024-01-07T03:59:28;99603.38;;;3.34;100.00
70133;BME280;57495;49.922;7.966;2024-01-07T04:01:31;99602.41;;;3.35;100.00
70133;BME280;57495;49.922;7.966;2024-01-07T04:03:32;99595.13;;;3.25;100.00
70133;BME280;57495;49.922;7.966;2024-01-07T04:05:34;99601.47;;;3.36;100.00
70133;BME280;57495;49.922;7.966;2024-01-07T04:07:35;99598.00;;;3.22;100.00
70133;BME280;57495;49.922;7.966;2024-01-07T04:09:36;99594.81;;;3.30;100.00
70133;BME280;57495;49.922;7.966;2024-01-07T04:11:39;99598.09;;;3.34;100.00
70133;BME280;57495;49.922;7.966;2024-01-07T04:13:40;99605.69;;;3.25;100.00
70133;BME280;57495;49.922;7.966;2024-01-07T04:15:42;99606.94;;;3.33;100.00
70133;BME280;57495;49.922;7.966;2024-01-07T04:17:45;99619.03;;;3.24;100.00
70133;BME280;57495;49.922;7.966;2024-01-07T04:19:46;99616.06;;;3.28;100.00
70133;BME280;57495;49.922;7.966;2024-01-07T04:21:47;99619.97;;;3.36;100.00
70133;BME280;57495;49.922;7.966;2024-01-07T04:23:49;99616.34;;;3.37;100.00
70133;BME280;57495;49.922;7.966;2024-01-07T04:25:50;99614.88;;;3.33;100.00
70133;BME280;57495;49.922;7.966;2024-01-07T04:27:52;99616.59;;;3.34;100.00
70133;BME280;57495;49.922;7.966;2024-01-07T04:29:53;99614.88;;;3.33;100.00
70133;BME280;57495;49.922;7.966;2024-01-07T04:31:55;99626.53;;;3.30;100.00
70133;BME280;57495;49.922;7.966;2024-01-07T04:33:57;99625.97;;;3.38;100.00
70133;BME280;57495;49.922;7.966;2024-01-07T04:35:59;99627.78;;;3.24;100.00
70133;BME280;57495;49.922;7.966;2024-01-07T04:38:01;99631.72;;;3.32;100.00
70133;BME280;57495;49.922;7.966;2024-01-07T04:40:02;99620.69;;;3.38;100.00
70133;BME280;57495;49.922;7.966;2024-01-07T04:42:04;99627.91;;;3.36;100.00
70133;BME280;57495;49.922;7.966;2024-01-07T04:44:06;99636.34;;;3.41;100.00
70133;BME280;57495;49.922;7.966;2024-01-07T04:46:07;99632.44;;;3.34;100.00
70133;BME280;57495;49.922;7.966;2024-01-07T04:48:10;99645.84;;;3.31;100.00
70133;BME280;57495;49.922;7.966;2024-01-07T04:50:12;99643.00;;;3.34;100.00
70133;BME280;57495;49.922;7.966;2024-01-07T04:52:15;99637.19;;;3.41;100.00
70133;BME280;57495;49.922;7.966;2024-01-07T04:54:16;99633.19;;;3.36;100.00
70133;BME280;57495;49.922;7.966;2024-01-07T04:56:19;99647.31;;;3.35;100.00
70133;BME280;57495;49.922;7.966;2024-01-07T04:58:20;99645.84;;;3.31;100.00
70133;BME280;57495;49.922;7.966;2024-01-07T05:00:20;99651.88;;;3.33;100.00
70133;BME280;57495;49.922;7.966;2024-01-07T05:02:22;99656.13;;;3.35;100.00
70133;BME280;57495;49.922;7.966;2024-01-07T05:04:24;99658.63;;;3.37;100.00
70133;BME280;57495;49.922;7.966;2024-01-07T05:06:26;99658.44;;;3.40;100.00
70133;BME280;57495;49.922;7.966;2024-01-07T05:08:28;99674.50;;;3.37;100.00
70133;BME280;57495;49.922;7.966;2024-01-07T05:10:28;99675.56;;;3.34;100.00
70133;BME280;57495;49.922;7.966;2024-01-07T05:12:29;99664.56;;;3.40;100.00
70133;BME280;57495;49.922;7.966;2024-01-07T05:14:31;99670.91;;;3.38;100.00
70133;BME280;57495;49.922;7.966;2024-01-07T05:16:32;99678.31;;;3.45;100.00
70133;BME280;57495;49.922;7.966;2024-01-07T05:18:34;99679.03;;;3.47;100.00
70133;BME280;57495;49.922;7.966;2024-01-07T05:20:35;99675.56;;;3.47;100.00
70133;BME280;57495;49.922;7.966;2024-01-07T05:22:38;99683.19;;;3.39;100.00
70133;BME280;57495;49.922;7.966;2024-01-07T05:24:38;99683.94;;;3.41;100.00
70133;BME280;57495;49.922;7.966;2024-01-07T05:26:41;99677.91;;;3.39;100.00
70133;BME280;57495;49.922;7.966;2024-01-07T05:28:41;99680.75;;;3.36;100.00
70133;BME280;57495;49.922;7.966;2024-01-07T05:30:43;99682.31;;;3.38;100.00
70133;BME280;57495;49.922;7.966;2024-01-07T05:32:44;99681.28;;;3.41;100.00
70133;BME280;57495;49.922;7.966;2024-01-07T05:34:45;99682.56;;;3.48;100.00
70133;BME280;57495;49.922;7.966;2024-01-07T05:36:46;99681.47;;;3.38;100.00
70133;BME280;57495;49.922;7.966;2024-01-07T05:38:48;99684.66;;;3.43;100.00
70133;BME280;57495;49.922;7.966;2024-01-07T05:40:50;99688.25;;;3.55;100.00
70133;BME280;57495;49.922;7.966;2024-01-07T05:42:52;99696.06;;;3.43;100.00
70133;BME280;57495;49.922;7.966;2024-01-07T05:44:53;99696.91;;;3.44;100.00
70133;BME280;57495;49.922;7.966;2024-01-07T05:46:54;99690.34;;;3.37;100.00
70133;BME280;57495;49.922;7.966;2024-01-07T05:48:56;99695.63;;;3.37;100.00
70133;BME280;57495;49.922;7.966;2024-01-07T05:50:57;99701.56;;;3.40;100.00
70133;BME280;57495;49.922;7.966;2024-01-07T05:52:58;99703.56;;;3.49;100.00
70133;BME280;57495;49.922;7.966;2024-01-07T05:55:00;99695.75;;;3.35;100.00
70133;BME280;57495;49.922;7.966;2024-01-07T05:57:02;99708.09;;;3.35;100.00
70133;BME280;57495;49.922;7.966;2024-01-07T05:59:04;99705.81;;;3.43;100.00
70133;BME280;57495;49.922;7.966;2024-01-07T06:01:06;99705.06;;;3.28;100.00
70133;BME280;57495;49.922;7.966;2024-01-07T06:03:10;99707.28;;;3.34;100.00
70133;BME280;57495;49.922;7.966;2024-01-07T06:05:12;99713.84;;;3.41;100.00
70133;BME280;57495;49.922;7.966;2024-01-07T06:07:13;99716.16;;;3.46;100.00
70133;BME280;57495;49.922;7.966;2024-01-07T06:09:14;99711.28;;;3.40;100.00
70133;BME280;57495;49.922;7.966;2024-01-07T06:11:17;99713.38;;;3.35;100.00
70133;BME280;57495;49.922;7.966;2024-01-07T06:13:20;99725.88;;;3.33;100.00
70133;BME280;57495;49.922;7.966;2024-01-07T06:15:22;99729.22;;;3.22;100.00
70133;BME280;57495;49.922;7.966;2024-01-07T06:17:23;99724.38;;;3.16;100.00
70133;BME280;57495;49.922;7.966;2024-01-07T06:19:24;99731.13;;;3.20;100.00
70133;BME280;57495;49.922;7.966;2024-01-07T06:21:26;99735.38;;;3.22;100.00
70133;BME280;57495;49.922;7.966;2024-01-07T06:23:28;99734.31;;;3.25;100.00
70133;BME280;57495;49.922;7.966;2024-01-07T06:25:29;99737.28;;;3.20;100.00
70133;BME280;57495;49.922;7.966;2024-01-07T06:27:32;99738.53;;;3.15;100.00
70133;BME280;57495;49.922;7.966;2024-01-07T06:29:33;99746.97;;;3.20;100.00
70133;BME280;57495;49.922;7.966;2024-01-07T06:31:35;99742.44;;;3.22;100.00
70133;BME280;57495;49.922;7.966;2024-01-07T06:33:36;99746.16;;;3.19;100.00
70133;BME280;57495;49.922;7.966;2024-01-07T06:35:37;99750.78;;;3.16;100.00
70133;BME280;57495;49.922;7.966;2024-01-07T06:37:39;99747.63;;;3.23;100.00
70133;BME280;57495;49.922;7.966;2024-01-07T06:39:39;99749.34;;;3.24;100.00
70133;BME280;57495;49.922;7.966;2024-01-07T06:41:40;99750.72;;;3.30;100.00
70133;BME280;57495;49.922;7.966;2024-01-07T06:43:43;99746.47;;;3.27;100.00
70133;BME280;57495;49.922;7.966;2024-01-07T06:45:45;99756.00;;;3.30;100.00
70133;BME280;57495;49.922;7.966;2024-01-07T06:47:46;99758.84;;;3.27;100.00
70133;BME280;57495;49.922;7.966;2024-01-07T06:49:47;99754.19;;;3.31;100.00
70133;BME280;57495;49.922;7.966;2024-01-07T06:51:48;99757.81;;;3.29;100.00
70133;BME280;57495;49.922;7.966;2024-01-07T06:53:49;99760.75;;;3.38;100.00
70133;BME280;57495;49.922;7.966;2024-01-07T06:55:51;99771.34;;;3.38;100.00
70133;BME280;57495;49.922;7.966;2024-01-07T06:57:52;99767.31;;;3.32;100.00
70133;BME280;57495;49.922;7.966;2024-01-07T06:59:55;99771.56;;;3.47;100.00
70133;BME280;57495;49.922;7.966;2024-01-07T07:01:56;99768.38;;;3.55;100.00
70133;BME280;57495;49.922;7.966;2024-01-07T07:03:58;99770.81;;;3.58;100.00
70133;BME280;57495;49.922;7.966;2024-01-07T07:06:00;99762.69;;;3.48;100.00
70133;BME280;57495;49.922;7.966;2024-01-07T07:08:02;99776.84;;;3.47;100.00
70133;BME280;57495;49.922;7.966;2024-01-07T07:10:03;99778.19;;;3.40;100.00
70133;BME280;57495;49.922;7.966;2024-01-07T07:12:05;99785.06;;;3.30;100.00
70133;BME280;57495;49.922;7.966;2024-01-07T07:14:08;99787.63;;;3.32;100.00
70133;BME280;57495;49.922;7.966;2024-01-07T07:16:10;99787.47;;;3.33;100.00
70133;BME280;57495;49.922;7.966;2024-01-07T07:18:12;99791.09;;;3.32;100.00
70133;BME280;57495;49.922;7.966;2024-01-07T07:20:12;99788.91;;;3.39;100.00
70133;BME280;57495;49.922;7.966;2024-01-07T07:22:14;99799.06;;;3.45;100.00
70133;BME280;57495;49.922;7.966;2024-01-07T07:24:15;99795.03;;;3.39;100.00
70133;BME280;57495;49.922;7.966;2024-01-07T07:26:16;99801.28;;;3.51;100.00
70133;BME280;57495;49.922;7.966;2024-01-07T07:28:18;99806.00;;;3.46;100.00
70133;BME280;57495;49.922;7.966;2024-01-07T07:30:19;99803.88;;;3.38;100.00
70133;BME280;57495;49.922;7.966;2024-01-07T07:32:21;99810.78;;;3.41;100.00
70133;BME280;57495;49.922;7.966;2024-01-07T07:34:22;99809.91;;;3.40;100.00
70133;BME280;57495;49.922;7.966;2024-01-07T07:36:24;99822.38;;;3.38;100.00
70133;BME280;57495;49.922;7.966;2024-01-07T07:38:25;99823.88;;;3.42;100.00
70133;BME280;57495;49.922;7.966;2024-01-07T07:40:25;99828.09;;;3.32;100.00
70133;BME280;57495;49.922;7.966;2024-01-07T07:42:27;99829.66;;;3.35;100.00
70133;BME280;57495;49.922;7.966;2024-01-07T07:44:28;99838.56;;;3.34;100.00
70133;BME280;57495;49.922;7.966;2024-01-07T07:46:29;99839.13;;;3.39;100.00
70133;BME280;57495;49.922;7.966;2024-01-07T07:48:32;99837.50;;;3.36;100.00
70133;BME280;57495;49.922;7.966;2024-01-07T07:50:34;99843.09;;;3.32;100.00
70133;BME280;57495;49.922;7.966;2024-01-07T07:52:35;99851.56;;;3.37;100.00
70133;BME280;57495;49.922;7.966;2024-01-07T07:54:37;99850.81;;;3.35;100.00
70133;BME280;57495;49.922;7.966;2024-01-07T07:56:38;99854.50;;;3.32;100.00
70133;BME280;57495;49.922;7.966;2024-01-07T07:58:40;99852.19;;;3.40;100.00
70133;BME280;57495;49.922;7.966;2024-01-07T08:00:41;99857.44;;;3.27;100.00
70133;BME280;57495;49.922;7.966;2024-01-07T08:02:42;99863.28;;;3.33;100.00
70133;BME280;57495;49.922;7.966;2024-01-07T08:04:45;99865.38;;;3.27;100.00
70133;BME280;57495;49.922;7.966;2024-01-07T08:06:47;99877.47;;;3.32;100.00
70133;BME280;57495;49.922;7.966;2024-01-07T08:08:48;99873.47;;;3.39;100.00
70133;BME280;57495;49.922;7.966;2024-01-07T08:10:49;99875.94;;;3.27;100.00
70133;BME280;57495;49.922;7.966;2024-01-07T08:12:51;99875.09;;;3.27;100.00
70133;BME280;57495;49.922;7.966;2024-01-07T08:14:51;99877.66;;;3.28;100.00
70133;BME280;57495;49.922;7.966;2024-01-07T08:16:53;99881.69;;;3.34;100.00
70133;BME280;57495;49.922;7.966;2024-01-07T08:18:54;99871.94;;;3.35;100.00
70133;BME280;57495;49.922;7.966;2024-01-07T08:20:58;99879.13;;;3.33;100.00
70133;BME280;57495;49.922;7.966;2024-01-07T08:22:59;99880.19;;;3.30;100.00
70133;BME280;57495;49.922;7.966;2024-01-07T08:25:01;99878.47;;;3.29;100.00
70133;BME280;57495;49.922;7.966;2024-01-07T08:27:01;99872.81;;;3.35;100.00
70133;BME280;57495;49.922;7.966;2024-01-07T08:29:03;99874.69;;;3.33;100.00
70133;BME280;57495;49.922;7.966;2024-01-07T08:31:05;99875.56;;;3.34;100.00
70133;BME280;57495;49.922;7.966;2024-01-07T08:33:07;99880.19;;;3.30;100.00
70133;BME280;57495;49.922;7.966;2024-01-07T08:35:08;99881.03;;;3.31;100.00
70133;BME280;57495;49.922;7.966;2024-01-07T08:37:11;99878.06;;;3.22;100.00
70133;BME280;57495;49.922;7.966;2024-01-07T08:39:14;99883.53;;;3.19;100.00
70133;BME280;57495;49.922;7.966;2024-01-07T08:41:15;99881.53;;;3.23;100.00
70133;BME280;57495;49.922;7.966;2024-01-07T08:43:17;99885.97;;;3.22;100.00
70133;BME280;57495;49.922;7.966;2024-01-07T08:45:18;99890.84;;;3.28;100.00
70133;BME280;57495;49.922;7.966;2024-01-07T08:47:20;99891.03;;;3.25;100.00
70133;BME280;57495;49.922;7.966;2024-01-07T08:49:21;99890.53;;;3.33;100.00
70133;BME280;57495;49.922;7.966;2024-01-07T08:51:22;99897.44;;;3.36;100.00
70133;BME280;57495;49.922;7.966;2024-01-07T08:53:25;99902.53;;;3.39;100.00
70133;BME280;57495;49.922;7.966;2024-01-07T08:55:27;99897.78;;;3.44;100.00
70133;BME280;57495;49.922;7.966;2024-01-07T08:57:28;99903.16;;;3.42;100.00
70133;BME280;57495;49.922;7.966;2024-01-07T08:59:29;99914.19;;;3.49;100.00
70133;BME280;57495;49.922;7.966;2024-01-07T09:01:31;99908.50;;;3.55;100.00
70133;BME280;57495;49.922;7.966;2024-01-07T09:03:32;99907.56;;;3.56;100.00
70133;BME280;57495;49.922;7.966;2024-01-07T09:05:33;99911.66;;;3.47;100.00
70133;BME280;57495;49.922;7.966;2024-01-07T09:07:34;99912.00;;;3.56;100.00
70133;BME280;57495;49.922;7.966;2024-01-07T09:09:36;99919.44;;;3.63;100.00
70133;BME280;57495;49.922;7.966;2024-01-07T09:11:37;99928.09;;;3.65;100.00
70133;BME280;57495;49.922;7.966;2024-01-07T09:13:39;99923.75;;;3.64;100.00
70133;BME280;57495;49.922;7.966;2024-01-07T09:15:40;99932.78;;;3.75;100.00
70133;BME280;57495;49.922;7.966;2024-01-07T09:17:42;99935.97;;;3.80;100.00
70133;BME280;57495;49.922;7.966;2024-01-07T09:19:43;99940.91;;;3.72;100.00
70133;BME280;57495;49.922;7.966;2024-01-07T09:21:44;99941.28;;;3.80;100.00
70133;BME280;57495;49.922;7.966;2024-01-07T09:23:46;99943.28;;;3.76;100.00
70133;BME280;57495;49.922;7.966;2024-01-07T09:25:48;99945.59;;;4.34;100.00
70133;BME280;57495;49.922;7.966;2024-01-07T09:27:50;99945.38;;;4.24;100.00
70133;BME280;57495;49.922;7.966;2024-01-07T09:29:51;99949.56;;;4.01;100.00
70133;BME280;57495;49.922;7.966;2024-01-07T09:31:53;99954.34;;;4.09;100.00
70133;BME280;57495;49.922;7.966;2024-01-07T09:33:54;99956.75;;;3.99;100.00
70133;BME280;57495;49.922;7.966;2024-01-07T09:35:55;99958.50;;;4.38;100.00
70133;BME280;57495;49.922;7.966;2024-01-07T09:37:57;99958.88;;;5.22;100.00
70133;BME280;57495;49.922;7.966;2024-01-07T09:39:58;99956.75;;;5.51;100.00
70133;BME280;57495;49.922;7.966;2024-01-07T09:42:00;99958.72;;;5.85;100.00
70133;BME280;57495;49.922;7.966;2024-01-07T09:44:03;99956.66;;;6.48;100.00
70133;BME280;57495;49.922;7.966;2024-01-07T09:46:04;99961.97;;;6.48;100.00
70133;BME280;57495;49.922;7.966;2024-01-07T09:48:06;99968.03;;;6.61;100.00
70133;BME280;57495;49.922;7.966;2024-01-07T09:50:08;99966.50;;;7.59;100.00
70133;BME280;57495;49.922;7.966;2024-01-07T09:52:10;99968.00;;;8.37;100.00
70133;BME280;57495;49.922;7.966;2024-01-07T09:54:15;99973.69;;;8.44;100.00
70133;BME280;57495;49.922;7.966;2024-01-07T09:56:19;99973.34;;;9.10;100.00
70133;BME280;57495;49.922;7.966;2024-01-07T09:58:22;99975.59;;;9.75;100.00
70133;BME280;57495;49.922;7.966;2024-01-07T10:00:25;99976.34;;;9.86;94.17
70133;BME280;57495;49.922;7.966;2024-01-07T10:02:27;99980.41;;;10.30;92.63
70133;BME280;57495;49.922;7.966;2024-01-07T10:04:29;99974.47;;;9.58;84.06
70133;BME280;57495;49.922;7.966;2024-01-07T10:06:31;99980.06;;;8.52;94.42
70133;BME280;57495;49.922;7.966;2024-01-07T10:08:33;99983.16;;;9.09;91.55
70133;BME280;57495;49.922;7.966;2024-01-07T10:10:35;99981.19;;;9.42;86.14
70133;BME280;57495;49.922;7.966;2024-01-07T10:12:36;99989.31;;;9.41;84.91
70133;BME280;57495;49.922;7.966;2024-01-07T10:14:38;100001.84;;;9.60;85.52
70133;BME280;57495;49.922;7.966;2024-01-07T10:16:41;99997.56;;;9.28;83.56
70133;BME280;57495;49.922;7.966;2024-01-07T10:18:42;99999.63;;;9.65;84.42
70133;BME280;57495;49.922;7.966;2024-01-07T10:20:43;100005.94;;;9.64;84.02
70133;BME280;57495;49.922;7.966;2024-01-07T10:22:46;100009.34;;;9.76;81.14
70133;BME280;57495;49.922;7.966;2024-01-07T10:24:51;100007.50;;;9.66;74.51
70133;BME280;57495;49.922;7.966;2024-01-07T10:26:52;100013.63;;;9.47;71.44
70133;BME280;57495;49.922;7.966;2024-01-07T10:28:54;100010.28;;;9.15;72.79
70133;BME280;57495;49.922;7.966;2024-01-07T10:30:56;100006.34;;;7.38;79.13
70133;BME280;57495;49.922;7.966;2024-01-07T10:32:59;100013.25;;;7.06;82.19
70133;BME280;57495;49.922;7.966;2024-01-07T10:35:02;100011.84;;;6.44;85.90
70133;BME280;57495;49.922;7.966;2024-01-07T10:37:05;100015.75;;;6.27;88.35
70133;BME280;57495;49.922;7.966;2024-01-07T10:39:06;100021.34;;;5.63;93.60
70133;BME280;57495;49.922;7.966;2024-01-07T10:41:07;100014.88;;;5.54;97.65
70133;BME280;57495;49.922;7.966;2024-01-07T10:43:10;100014.19;;;5.27;99.76